^^
Your Local Weather - Clay, NY Station Historical Data
Daily Summary for February 13, 2017 Units:  Metric    English   Both
« Previous Day
Next Day »
Daily Weekly Monthly Yearly Custom
  High: Low: Average:
Temperature: -0.2 °C -4.3 °C -2.9 °C
Dew Point: -1 °C -6.3 °C -4.6 °C
Humidity: 94% 80% 88%
Wind Speed: 9.7km/h 0km/h 5.1km/h
Wind Gust: 24.1km/h - -
Wind- - NW
Pressure: 1016.8 hPa 1002.6 hPa -
Precipitation: 0 mm    
Historical Graphs
 
 
Tabular Data for February 13, 2017
Time Temperature Dew Point Pressure Wind Wind Speed Wind Gust Humidity Rainfall Rate (Hourly) solar
00:04 -0.2 °C -1.2 °C 1002.6 hPa WNW 6.4 km/h 8 km/h 93% 0 mm 0 W/m2
00:10 -0.3 °C -1.3 °C 1002.9 hPa WNW 6.4 km/h 6.4 km/h 93% 0 mm 0 W/m2
00:16 -0.3 °C -1.3 °C 1002.9 hPa WNW 4.8 km/h 8 km/h 93% 0 mm 0 W/m2
00:22 -0.3 °C -1.3 °C 1002.9 hPa WNW 4.8 km/h 4.8 km/h 93% 0 mm 0 W/m2
00:28 -0.2 °C -1 °C 1002.9 hPa WNW 6.4 km/h 16.1 km/h 94% 0 mm 0 W/m2
00:34 -0.2 °C -1.2 °C 1002.9 hPa WNW 9.7 km/h 9.7 km/h 93% 0 mm 0 W/m2
00:40 -0.2 °C -1.2 °C 1002.9 hPa NNW 8 km/h 9.7 km/h 93% 0 mm 0 W/m2
00:46 -0.3 °C -1.3 °C 1003.3 hPa WNW 6.4 km/h 9.7 km/h 93% 0 mm 0 W/m2
00:52 -0.4 °C -1.4 °C 1003.3 hPa WNW 4.8 km/h 8 km/h 93% 0 mm 0 W/m2
00:58 -0.4 °C -1.4 °C 1003.3 hPa WNW 4.8 km/h 8 km/h 93% 0 mm 0 W/m2
01:04 -0.4 °C -1.4 °C 1003.3 hPa West 4.8 km/h 8 km/h 93% 0 mm 0 W/m2
01:10 -0.4 °C -1.2 °C 1003.6 hPa WNW 4.8 km/h 4.8 km/h 94% 0 mm 0 W/m2
01:16 -0.5 °C -1.3 °C 1003.6 hPa NW 6.4 km/h 6.4 km/h 94% 0 mm 0 W/m2
01:22 -0.6 °C -1.6 °C 1003.6 hPa WNW 6.4 km/h 6.4 km/h 93% 0 mm 0 W/m2
01:28 -0.6 °C -1.6 °C 1003.6 hPa WNW 6.4 km/h 6.4 km/h 93% 0 mm 0 W/m2
01:34 -0.7 °C -1.5 °C 1003.9 hPa WNW 6.4 km/h 8 km/h 94% 0 mm 0 W/m2
01:40 -0.7 °C -1.5 °C 1003.9 hPa West 6.4 km/h 6.4 km/h 94% 0 mm 0 W/m2
01:46 -0.7 °C -1.6 °C 1003.9 hPa WNW 6.4 km/h 12.9 km/h 94% 0 mm 0 W/m2
01:52 -0.8 °C -1.8 °C 1003.9 hPa West 9.7 km/h 11.3 km/h 93% 0 mm 0 W/m2
01:58 -0.8 °C -1.8 °C 1003.9 hPa NW 9.7 km/h 24.1 km/h 93% 0 mm 0 W/m2
02:04 -0.9 °C -1.7 °C 1004.3 hPa WNW 9.7 km/h 11.3 km/h 94% 0 mm 0 W/m2
02:10 -0.9 °C -1.8 °C 1004.6 hPa WNW 8 km/h 8 km/h 94% 0 mm 0 W/m2
02:16 -0.9 °C -1.8 °C 1004.6 hPa WSW 8 km/h 14.5 km/h 94% 0 mm 0 W/m2
02:22 -0.9 °C -1.8 °C 1004.6 hPa NNW 8 km/h 8 km/h 94% 0 mm 0 W/m2
02:28 -1.1 °C -1.9 °C 1005 hPa WNW 8 km/h 8 km/h 94% 0 mm 0 W/m2
02:34 -1.2 °C -2.1 °C 1005 hPa NNW 8 km/h 14.5 km/h 94% 0 mm 0 W/m2
02:40 -1.3 °C -2.2 °C 1005 hPa NW 8 km/h 8 km/h 94% 0 mm 0 W/m2
02:46 -1.4 °C -2.4 °C 1005 hPa NW 8 km/h 14.5 km/h 93% 0 mm 0 W/m2
02:52 -1.5 °C -2.3 °C 1005 hPa NW 8 km/h 8 km/h 94% 0 mm 0 W/m2
02:58 -1.6 °C -2.4 °C 1005 hPa WNW 6.4 km/h 8 km/h 94% 0 mm 0 W/m2
03:04 -1.7 °C -2.5 °C 1005 hPa WNW 6.4 km/h 8 km/h 94% 0 mm 0 W/m2
03:10 -1.7 °C -2.5 °C 1005.3 hPa NW 6.4 km/h 6.4 km/h 94% 0 mm 0 W/m2
03:16 -1.7 °C -2.5 °C 1005.3 hPa NW 6.4 km/h 9.7 km/h 94% 0 mm 0 W/m2
03:22 -1.7 °C -2.5 °C 1005.6 hPa WNW 6.4 km/h 6.4 km/h 94% 0 mm 0 W/m2
03:28 -1.7 °C -2.6 °C 1005.6 hPa NNW 8 km/h 9.7 km/h 94% 0 mm 0 W/m2
03:34 -1.7 °C -2.6 °C 1006 hPa NNW 6.4 km/h 11.3 km/h 94% 0 mm 0 W/m2
03:40 -1.9 °C -2.8 °C 1006 hPa NW 4.8 km/h 6.4 km/h 94% 0 mm 0 W/m2
03:46 -2.2 °C -3.2 °C 1006.3 hPa NW 6.4 km/h 9.7 km/h 93% 0 mm 0 W/m2
03:52 -2.3 °C -3.2 °C 1006.3 hPa NW 4.8 km/h 4.8 km/h 94% 0 mm 0 W/m2
03:58 -2.4 °C -3.4 °C 1006.7 hPa NW 3.2 km/h 9.7 km/h 93% 0 mm 0 W/m2
04:04 -2.6 °C -3.4 °C 1006.7 hPa NNW 4.8 km/h 4.8 km/h 94% 0 mm 0 W/m2
04:10 -2.8 °C -3.8 °C 1006.7 hPa North 6.4 km/h 12.9 km/h 93% 0 mm 0 W/m2
04:16 -2.9 °C -3.9 °C 1007 hPa NW 8 km/h 12.9 km/h 93% 0 mm 0 W/m2
04:22 -3 °C -4 °C 1007.3 hPa NNW 6.4 km/h 8 km/h 93% 0 mm 0 W/m2
04:28 -3.1 °C -4 °C 1007.3 hPa NW 4.8 km/h 12.9 km/h 93% 0 mm 0 W/m2
04:34 -3.1 °C -4 °C 1007.3 hPa NNW 6.4 km/h 6.4 km/h 93% 0 mm 0 W/m2
04:40 -3.1 °C -4.1 °C 1007.7 hPa NW 4.8 km/h 4.8 km/h 93% 0 mm 0 W/m2
04:46 -3.2 °C -4.1 °C 1007.7 hPa NNW 6.4 km/h 6.4 km/h 93% 0 mm 0 W/m2
04:52 -3.3 °C -4.2 °C 1008 hPa NW 8 km/h 8 km/h 93% 0 mm 0 W/m2
04:58 -3.4 °C -4.3 °C 1008.4 hPa NW 6.4 km/h 9.7 km/h 93% 0 mm 0 W/m2
05:04 -3.4 °C -4.4 °C 1008.4 hPa NNW 6.4 km/h 11.3 km/h 93% 0 mm 0 W/m2
05:10 -3.5 °C -4.4 °C 1008.7 hPa WNW 6.4 km/h 6.4 km/h 93% 0 mm 0 W/m2
05:16 -3.6 °C -4.5 °C 1008.7 hPa NW 6.4 km/h 8 km/h 93% 0 mm 0 W/m2
05:22 -3.6 °C -4.6 °C 1008.7 hPa NW 4.8 km/h 6.4 km/h 93% 0 mm 0 W/m2
05:28 -3.7 °C -4.6 °C 1009 hPa NNW 6.4 km/h 8 km/h 93% 0 mm 0 W/m2
05:34 -3.8 °C -4.7 °C 1009 hPa WNW 6.4 km/h 9.7 km/h 93% 0 mm 0 W/m2
05:40 -3.8 °C -4.8 °C 1009.4 hPa WNW 6.4 km/h 6.4 km/h 93% 0 mm 0 W/m2
05:46 -3.9 °C -4.9 °C 1009.4 hPa WNW 6.4 km/h 6.4 km/h 93% 0 mm 0 W/m2
05:52 -4 °C -4.9 °C 1009.7 hPa NW 6.4 km/h 8 km/h 93% 0 mm 0 W/m2
05:58 -4.1 °C -5 °C 1009.7 hPa NW 6.4 km/h 8 km/h 93% 0 mm 0 W/m2
06:04 -4.1 °C -5.1 °C 1009.7 hPa NW 6.4 km/h 9.7 km/h 93% 0 mm 0 W/m2
06:10 -4.1 °C -5.1 °C 1010 hPa NW 6.4 km/h 6.4 km/h 93% 0 mm 0 W/m2
06:16 -4.2 °C -5.1 °C 1010 hPa NW 4.8 km/h 8 km/h 93% 0 mm 0 W/m2
06:22 -4.2 °C -5.1 °C 1010.4 hPa WNW 4.8 km/h 6.4 km/h 93% 0 mm 0 W/m2
06:28 -4.2 °C -5.2 °C 1010.4 hPa WNW 4.8 km/h 6.4 km/h 93% 0 mm 0 W/m2
06:34 -4.2 °C -5.2 °C 1010.7 hPa WNW 6.4 km/h 8 km/h 93% 0 mm 0 W/m2
06:40 -4.2 °C -5.2 °C 1010.7 hPa NW 6.4 km/h 6.4 km/h 93% 0 mm 0 W/m2
06:46 -4.3 °C -5.4 °C 1011.1 hPa North 4.8 km/h 6.4 km/h 92% 0 mm 0 W/m2
06:52 -4.3 °C -5.4 °C 1011.1 hPa NNW 4.8 km/h 8 km/h 92% 0 mm 0 W/m2
06:58 -4.3 °C -5.4 °C 1011.1 hPa NW 4.8 km/h 8 km/h 92% 0 mm 0 W/m2
07:04 -4.3 °C -5.4 °C 1011.4 hPa NW 4.8 km/h 4.8 km/h 92% 0 mm 0 W/m2
07:10 -4.2 °C -5.3 °C 1011.4 hPa NW 4.8 km/h 4.8 km/h 92% 0 mm 0 W/m2
07:16 -4.2 °C -5.3 °C 1011.7 hPa WNW 3.2 km/h 4.8 km/h 92% 0 mm 0 W/m2
07:22 -4.2 °C -5.3 °C 1011.7 hPa NNW 3.2 km/h 4.8 km/h 92% 0 mm 0 W/m2
07:28 -4.1 °C -5.2 °C 1012.1 hPa WNW 4.8 km/h 6.4 km/h 92% 0 mm 0 W/m2
07:34 -4.1 °C -5.2 °C 1012.1 hPa NW 4.8 km/h 9.7 km/h 92% 0 mm 0 W/m2
07:40 -4.1 °C -5.2 °C 1012.1 hPa WNW 4.8 km/h 4.8 km/h 92% 0 mm 0 W/m2
07:46 -4.1 °C -5.2 °C 1012.4 hPa NW 4.8 km/h 4.8 km/h 92% 0 mm 0 W/m2
07:52 -4.1 °C -5.2 °C 1012.4 hPa NW 3.2 km/h 4.8 km/h 92% 0 mm 0 W/m2
07:58 -4.1 °C -5.2 °C 1012.4 hPa NW 6.4 km/h 6.4 km/h 92% 0 mm 0 W/m2
08:04 -4.1 °C -5.2 °C 1012.4 hPa NW 6.4 km/h 6.4 km/h 92% 0 mm 5 W/m2
08:10 -4.1 °C -5.2 °C 1012.4 hPa NNW 6.4 km/h 6.4 km/h 92% 0 mm 5 W/m2
08:16 -4 °C -5.1 °C 1012.8 hPa WNW 4.8 km/h 9.7 km/h 92% 0 mm 7 W/m2
08:22 -4 °C -5.1 °C 1012.8 hPa NW 4.8 km/h 9.7 km/h 92% 0 mm 9 W/m2
08:28 -4 °C -5.1 °C 1012.8 hPa NNW 6.4 km/h 11.3 km/h 92% 0 mm 11 W/m2
08:36 -3.9 °C -5.2 °C 1013.1 hPa NW 8 km/h 12.9 km/h 91% 0 mm 14 W/m2
08:42 -3.9 °C -5.2 °C 1013.1 hPa NW 8 km/h 12.9 km/h 91% 0 mm 14 W/m2
08:48 -3.9 °C -5.2 °C 1013.1 hPa NW 8 km/h 12.9 km/h 91% 0 mm 14 W/m2
08:54 -3.8 °C -5.1 °C 1013.1 hPa NNW 6.4 km/h 6.4 km/h 91% 0 mm 16 W/m2
09:00 -3.8 °C -5.1 °C 1013.4 hPa WNW 4.8 km/h 4.8 km/h 91% 0 mm 14 W/m2
09:06 -3.8 °C -5.2 °C 1013.4 hPa NW 6.4 km/h 6.4 km/h 90% 0 mm 16 W/m2
09:12 -3.8 °C -5.2 °C 1013.4 hPa NNW 6.4 km/h 6.4 km/h 90% 0 mm 16 W/m2
09:18 -3.8 °C -5.2 °C 1013.4 hPa NW 6.4 km/h 8 km/h 90% 0 mm 19 W/m2
09:24 -3.7 °C -5.1 °C 1013.4 hPa West 6.4 km/h 8 km/h 90% 0 mm 21 W/m2
09:30 -3.7 °C -5.1 °C 1013.8 hPa WNW 6.4 km/h 6.4 km/h 90% 0 mm 16 W/m2
09:36 -3.7 °C -5.2 °C 1013.8 hPa NW 9.7 km/h 11.3 km/h 89% 0 mm 18 W/m2
09:42 -3.7 °C -5.4 °C 1014.1 hPa NW 9.7 km/h 9.7 km/h 88% 0 mm 21 W/m2
09:48 -3.7 °C -5.4 °C 1014.1 hPa NW 8 km/h 9.7 km/h 88% 0 mm 21 W/m2
09:54 -3.7 °C -5.4 °C 1014.1 hPa NW 8 km/h 9.7 km/h 88% 0 mm 25 W/m2
10:00 -3.7 °C -5.4 °C 1014.1 hPa NNW 8 km/h 8 km/h 88% 0 mm 26 W/m2
10:06 -3.6 °C -5.3 °C 1014.1 hPa NNW 8 km/h 12.9 km/h 88% 0 mm 21 W/m2
10:12 -3.4 °C -5.2 °C 1014.1 hPa NW 6.4 km/h 9.7 km/h 88% 0 mm 26 W/m2
10:18 -3.3 °C -5.1 °C 1014.1 hPa NW 6.4 km/h 9.7 km/h 88% 0 mm 33 W/m2
10:24 -3.2 °C -4.9 °C 1014.1 hPa NW 6.4 km/h 9.7 km/h 88% 0 mm 35 W/m2
10:30 -3.1 °C -4.8 °C 1014.1 hPa NW 6.4 km/h 6.4 km/h 88% 0 mm 37 W/m2
10:36 -3.1 °C -4.9 °C 1014.1 hPa WNW 6.4 km/h 9.7 km/h 87% 0 mm 37 W/m2
10:42 -3 °C -4.8 °C 1014.1 hPa NNW 6.4 km/h 19.3 km/h 87% 0 mm 37 W/m2
10:48 -3 °C -4.8 °C 1014.1 hPa NW 8 km/h 19.3 km/h 87% 0 mm 37 W/m2
10:54 -3.1 °C -5.2 °C 1014.1 hPa NW 9.7 km/h 14.5 km/h 85% 0 mm 39 W/m2
11:00 -3.1 °C -5.2 °C 1014.1 hPa NNW 9.7 km/h 9.7 km/h 85% 0 mm 39 W/m2
11:06 -3 °C -5 °C 1014.1 hPa NNE 9.7 km/h 9.7 km/h 86% 0 mm 35 W/m2
11:12 -2.9 °C -5.1 °C 1014.4 hPa North 8 km/h 12.9 km/h 85% 0 mm 39 W/m2
11:18 -2.8 °C -5 °C 1014.4 hPa NNW 8 km/h 12.9 km/h 85% 0 mm 37 W/m2
11:24 -2.7 °C -4.9 °C 1014.1 hPa NW 8 km/h 9.7 km/h 85% 0 mm 40 W/m2
11:30 -2.7 °C -4.7 °C 1014.4 hPa WNW 6.4 km/h 6.4 km/h 86% 0 mm 37 W/m2
11:36 -2.6 °C -4.6 °C 1014.4 hPa NNW 6.4 km/h 9.7 km/h 86% 0 mm 37 W/m2
11:42 -2.7 °C -4.7 °C 1014.4 hPa WNW 8 km/h 12.9 km/h 86% 0 mm 39 W/m2
11:48 -2.7 °C -4.7 °C 1014.4 hPa NW 8 km/h 12.9 km/h 86% 0 mm 33 W/m2
11:54 -2.7 °C -4.6 °C 1014.4 hPa NW 6.4 km/h 17.7 km/h 87% 0 mm 33 W/m2
12:00 -2.7 °C -4.6 °C 1014.4 hPa NW 6.4 km/h 8 km/h 87% 0 mm 30 W/m2
12:06 -2.8 °C -4.6 °C 1014.4 hPa WNW 6.4 km/h 8 km/h 88% 0 mm 25 W/m2
12:12 -2.8 °C -4.5 °C 1014.4 hPa WNW 4.8 km/h 4.8 km/h 88% 0 mm 21 W/m2
12:18 -2.8 °C -4.3 °C 1014.4 hPa NNW 4.8 km/h 6.4 km/h 89% 0 mm 25 W/m2
12:24 -2.7 °C -4.3 °C 1014.4 hPa NW 4.8 km/h 4.8 km/h 89% 0 mm 23 W/m2
12:30 -2.7 °C -4.3 °C 1014.4 hPa WNW 4.8 km/h 4.8 km/h 89% 0 mm 23 W/m2
12:36 -2.7 °C -4.2 °C 1014.8 hPa WNW 4.8 km/h 8 km/h 89% 0 mm 21 W/m2
12:42 -2.7 °C -4.3 °C 1014.8 hPa NW 4.8 km/h 4.8 km/h 89% 0 mm 18 W/m2
12:48 -2.7 °C -4.1 °C 1014.8 hPa NNW 4.8 km/h 4.8 km/h 90% 0 mm 18 W/m2
12:54 -2.7 °C -4.1 °C 1014.8 hPa NW 4.8 km/h 8 km/h 90% 0 mm 18 W/m2
13:00 -2.7 °C -4.1 °C 1014.8 hPa NNW 3.2 km/h 3.2 km/h 90% 0 mm 25 W/m2
13:06 -2.5 °C -3.8 °C 1014.8 hPa WNW 3.2 km/h 6.4 km/h 91% 0 mm 26 W/m2
13:12 -2.3 °C -3.6 °C 1014.8 hPa WNW 3.2 km/h 3.2 km/h 91% 0 mm 26 W/m2
13:18 -2.2 °C -3.5 °C 1014.8 hPa WNW 4.8 km/h 12.9 km/h 91% 0 mm 21 W/m2
13:24 -2.3 °C -3.8 °C 1014.8 hPa WNW 6.4 km/h 6.4 km/h 90% 0 mm 23 W/m2
13:30 -2.3 °C -3.7 °C 1014.8 hPa NW 4.8 km/h 4.8 km/h 90% 0 mm 25 W/m2
13:36 -2.2 °C -3.7 °C 1014.8 hPa WNW 4.8 km/h 9.7 km/h 89% 0 mm 19 W/m2
13:42 -2.2 °C -3.9 °C 1014.8 hPa NW 6.4 km/h 6.4 km/h 88% 0 mm 16 W/m2
13:48 -2.4 °C -4.3 °C 1014.8 hPa WNW 8 km/h 8 km/h 87% 0 mm 21 W/m2
13:54 -2.6 °C -4.4 °C 1015.1 hPa NNW 8 km/h 12.9 km/h 87% 0 mm 26 W/m2
14:02 -2.4 °C -4.4 °C 1015.1 hPa WNW 8 km/h 8 km/h 86% 0 mm 32 W/m2
14:08 -2.3 °C -4.3 °C 1015.1 hPa WNW 6.4 km/h 11.3 km/h 86% 0 mm 30 W/m2
14:14 -2.3 °C -4.7 °C 1015.1 hPa NW 6.4 km/h 11.3 km/h 84% 0 mm 35 W/m2
14:20 -2.3 °C -4.6 °C 1015.1 hPa WNW 8 km/h 8 km/h 84% 0 mm 28 W/m2
14:26 -2.3 °C -4.7 °C 1015.5 hPa West 8 km/h 11.3 km/h 84% 0 mm 19 W/m2
14:32 -2.6 °C -4.9 °C 1015.5 hPa West 8 km/h 12.9 km/h 84% 0 mm 16 W/m2
14:38 -2.7 °C -5 °C 1015.5 hPa NW 6.4 km/h 12.9 km/h 84% 0 mm 16 W/m2
14:44 -2.7 °C -5.1 °C 1015.8 hPa NW 6.4 km/h 11.3 km/h 84% 0 mm 16 W/m2
14:50 -2.7 °C -5.1 °C 1015.8 hPa WNW 6.4 km/h 6.4 km/h 84% 0 mm 19 W/m2
14:56 -2.7 °C -5 °C 1015.8 hPa WNW 4.8 km/h 9.7 km/h 84% 0 mm 21 W/m2
15:02 -2.7 °C -5 °C 1015.8 hPa WNW 4.8 km/h 6.4 km/h 84% 0 mm 19 W/m2
15:08 -2.7 °C -5 °C 1015.8 hPa WNW 6.4 km/h 6.4 km/h 84% 0 mm 19 W/m2
15:14 -2.7 °C -5.1 °C 1015.8 hPa West 6.4 km/h 11.3 km/h 84% 0 mm 18 W/m2
15:20 -2.8 °C -5.3 °C 1015.8 hPa NNW 6.4 km/h 6.4 km/h 83% 0 mm 18 W/m2
15:28 -2.8 °C -5.5 °C 1016.1 hPa WNW 8 km/h 20.9 km/h 82% 0 mm 18 W/m2
15:34 -2.8 °C -5.5 °C 1016.1 hPa NW 8 km/h 12.9 km/h 82% 0 mm 14 W/m2
15:40 -2.9 °C -5.7 °C 1016.1 hPa NW 6.4 km/h 9.7 km/h 81% 0 mm 14 W/m2
15:46 -2.9 °C -5.7 °C 1016.1 hPa WNW 8 km/h 16.1 km/h 81% 0 mm 11 W/m2
15:52 -2.9 °C -5.6 °C 1016.5 hPa WNW 8 km/h 8 km/h 82% 0 mm 9 W/m2
15:58 -3 °C -5.7 °C 1016.5 hPa NNW 8 km/h 9.7 km/h 82% 0 mm 9 W/m2
16:04 -3.1 °C -5.7 °C 1016.5 hPa NNW 8 km/h 8 km/h 82% 0 mm 7 W/m2
16:10 -3.1 °C -5.6 °C 1016.5 hPa WNW 6.4 km/h 6.4 km/h 83% 0 mm 11 W/m2
16:16 -3 °C -5.5 °C 1016.5 hPa WNW 4.8 km/h 8 km/h 83% 0 mm 9 W/m2
16:22 -3 °C -5.5 °C 1016.8 hPa WNW 4.8 km/h 11.3 km/h 83% 0 mm 9 W/m2
16:28 -2.9 °C -5.4 °C 1016.8 hPa WNW 3.2 km/h 11.3 km/h 83% 0 mm 7 W/m2
16:34 -2.9 °C -5.4 °C 1016.8 hPa NNW 4.8 km/h 8 km/h 83% 0 mm 5 W/m2
16:38 -3 °C -5.5 °C 1016.8 hPa NW 4.8 km/h 8 km/h 83% 0 mm 5 W/m2
16:44 -3 °C -5.5 °C 1016.8 hPa NW 4.8 km/h 4.8 km/h 83% 0 mm 5 W/m2
16:50 -3.1 °C -5.6 °C 1016.8 hPa WNW 4.8 km/h 4.8 km/h 83% 0 mm 0 W/m2
16:56 -3.2 °C -5.5 °C 1016.8 hPa WNW 6.4 km/h 12.9 km/h 84% 0 mm 0 W/m2
17:02 -3.3 °C -5.4 °C 1016.8 hPa WNW 6.4 km/h 6.4 km/h 85% 0 mm 0 W/m2
17:08 -3.3 °C -5.5 °C 1016.8 hPa NW 4.8 km/h 6.4 km/h 85% 0 mm 0 W/m2
17:14 -3.3 °C -5.3 °C 1016.8 hPa WNW 4.8 km/h 6.4 km/h 86% 0 mm 0 W/m2
17:20 -3.3 °C -5.3 °C 1016.8 hPa NNW 4.8 km/h 6.4 km/h 86% 0 mm 0 W/m2
17:26 -3.3 °C -5.3 °C 1016.8 hPa North 4.8 km/h 6.4 km/h 86% 0 mm 0 W/m2
17:32 -3.3 °C -5.2 °C 1016.8 hPa WNW 3.2 km/h 4.8 km/h 87% 0 mm 0 W/m2
17:38 -3.2 °C -5.2 °C 1016.8 hPa WNW 4.8 km/h 6.4 km/h 86% 0 mm 0 W/m2
17:44 -3.1 °C -5.3 °C 1016.8 hPa NW 4.8 km/h 4.8 km/h 85% 0 mm 0 W/m2
17:50 -3.1 °C -5.4 °C 1016.8 hPa NW 4.8 km/h 6.4 km/h 84% 0 mm 0 W/m2
17:56 -3.1 °C -5.6 °C 1016.8 hPa NW 6.4 km/h 12.9 km/h 83% 0 mm 0 W/m2
18:04 -3 °C -5.5 °C 1016.8 hPa WNW 4.8 km/h 6.4 km/h 83% 0 mm 0 W/m2
18:10 -3 °C -5.7 °C 1016.8 hPa NW 6.4 km/h 6.4 km/h 82% 0 mm 0 W/m2
18:16 -3.1 °C -5.7 °C 1016.8 hPa NW 6.4 km/h 6.4 km/h 82% 0 mm 0 W/m2
18:22 -3.1 °C -5.6 °C 1016.8 hPa WNW 3.2 km/h 4.8 km/h 83% 0 mm 0 W/m2
18:28 -3.1 °C -5.6 °C 1016.8 hPa WNW 4.8 km/h 6.4 km/h 83% 0 mm 0 W/m2
18:34 -3.1 °C -5.7 °C 1016.8 hPa WNW 4.8 km/h 9.7 km/h 82% 0 mm 0 W/m2
18:40 -3.1 °C -5.7 °C 1016.8 hPa WNW 6.4 km/h 6.4 km/h 82% 0 mm 0 W/m2
18:46 -3.1 °C -5.7 °C 1016.8 hPa WNW 4.8 km/h 6.4 km/h 82% 0 mm 0 W/m2
18:52 -3.1 °C -5.7 °C 1016.8 hPa NW 4.8 km/h 6.4 km/h 82% 0 mm 0 W/m2
18:58 -3.1 °C -6.1 °C 1016.8 hPa NW 6.4 km/h 12.9 km/h 80% 0 mm 0 W/m2
19:04 -3.2 °C -5.9 °C 1016.8 hPa NNW 6.4 km/h 9.7 km/h 81% 0 mm 0 W/m2
19:10 -3.2 °C -6 °C 1016.5 hPa WNW 4.8 km/h 4.8 km/h 81% 0 mm 0 W/m2
19:16 -3.2 °C -6 °C 1016.8 hPa NW 4.8 km/h 9.7 km/h 81% 0 mm 0 W/m2
19:22 -3.2 °C -6 °C 1016.8 hPa NW 4.8 km/h 6.4 km/h 81% 0 mm 0 W/m2
19:28 -3.2 °C -6 °C 1016.8 hPa WNW 4.8 km/h 9.7 km/h 81% 0 mm 0 W/m2
19:34 -3.2 °C -6.2 °C 1016.8 hPa NW 4.8 km/h 4.8 km/h 80% 0 mm 0 W/m2
19:40 -3.2 °C -6.2 °C 1016.5 hPa NNW 4.8 km/h 11.3 km/h 80% 0 mm 0 W/m2
19:46 -3.2 °C -6.2 °C 1016.5 hPa WNW 4.8 km/h 11.3 km/h 80% 0 mm 0 W/m2
19:52 -3.2 °C -6.2 °C 1016.5 hPa NW 4.8 km/h 4.8 km/h 80% 0 mm 0 W/m2
19:58 -3.3 °C -6.3 °C 1016.5 hPa NW 3.2 km/h 4.8 km/h 80% 0 mm 0 W/m2
20:04 -3.4 °C -6.3 °C 1016.5 hPa NW 1.6 km/h 1.6 km/h 80% 0 mm 0 W/m2
20:10 -3.4 °C -6.2 °C 1016.5 hPa NW 1.6 km/h 1.6 km/h 81% 0 mm 0 W/m2
20:16 -3.4 °C -6.2 °C 1016.5 hPa NW 1.6 km/h 3.2 km/h 81% 0 mm 0 W/m2
20:22 -3.4 °C -6.2 °C 1016.5 hPa WNW 1.6 km/h 1.6 km/h 81% 0 mm 0 W/m2
20:28 -3.4 °C -6.1 °C 1016.5 hPa WNW 1.6 km/h 1.6 km/h 82% 0 mm 0 W/m2
20:34 -3.4 °C -6.1 °C 1016.8 hPa Calm     82% 0 mm 0 W/m2
20:40 -3.4 °C -6.1 °C 1016.5 hPa Calm     82% 0 mm 0 W/m2
20:46 -3.4 °C -6.1 °C 1016.5 hPa Calm     82% 0 mm 0 W/m2
20:52 -3.5 °C -5.9 °C 1016.5 hPa WNW 1.6 km/h 3.2 km/h 83% 0 mm 0 W/m2
20:58 -3.6 °C -6 °C 1016.5 hPa WNW 1.6 km/h 3.2 km/h 83% 0 mm 0 W/m2
21:04 -3.6 °C -5.9 °C 1016.5 hPa Calm     84% 0 mm 0 W/m2
21:10 -3.6 °C -5.9 °C 1016.5 hPa Calm   1.6 km/h 84% 0 mm 0 W/m2
21:16 -3.6 °C -5.9 °C 1016.5 hPa Calm   3.2 km/h 84% 0 mm 0 W/m2
21:22 -3.6 °C -5.8 °C 1016.5 hPa WNW 1.6 km/h 3.2 km/h 85% 0 mm 0 W/m2
21:28 -3.6 °C -5.8 °C 1016.5 hPa WNW 1.6 km/h 4.8 km/h 85% 0 mm 0 W/m2
21:34 -3.6 °C -5.6 °C 1016.5 hPa WNW 1.6 km/h 1.6 km/h 86% 0 mm 0 W/m2
21:40 -3.6 °C -5.6 °C 1016.5 hPa WNW 1.6 km/h 1.6 km/h 86% 0 mm 0 W/m2
21:46 -3.6 °C -5.6 °C 1016.1 hPa WNW 1.6 km/h 1.6 km/h 86% 0 mm 0 W/m2
21:52 -3.6 °C -5.6 °C 1016.5 hPa Calm     86% 0 mm 0 W/m2
21:58 -3.6 °C -5.6 °C 1016.1 hPa Calm   1.6 km/h 86% 0 mm 0 W/m2
22:04 -3.7 °C -5.7 °C 1016.1 hPa WNW 1.6 km/h 1.6 km/h 86% 0 mm 0 W/m2
22:12 -3.7 °C -5.7 °C 1016.1 hPa Calm     86% 0 mm 0 W/m2
22:18 -3.7 °C -5.7 °C 1016.1 hPa Calm   3.2 km/h 86% 0 mm 0 W/m2
22:24 -3.7 °C -5.7 °C 1016.1 hPa Calm     86% 0 mm 0 W/m2
22:30 -3.7 °C -5.7 °C 1016.1 hPa Calm     86% 0 mm 0 W/m2
22:36 -3.7 °C -5.7 °C 1016.1 hPa Calm     86% 0 mm 0 W/m2
22:42 -3.7 °C -5.7 °C 1016.1 hPa Calm     86% 0 mm 0 W/m2
22:48 -3.7 °C -5.7 °C 1016.1 hPa Calm     86% 0 mm 0 W/m2
22:54 -3.7 °C -5.6 °C 1016.1 hPa Calm   3.2 km/h 87% 0 mm 0 W/m2
23:00 -3.8 °C -5.6 °C 1016.1 hPa Calm   1.6 km/h 87% 0 mm 0 W/m2
23:06 -3.8 °C -5.6 °C 1015.8 hPa Calm   1.6 km/h 87% 0 mm 0 W/m2
23:12 -3.8 °C -5.6 °C 1015.8 hPa Calm     87% 0 mm 0 W/m2
23:18 -3.8 °C -5.6 °C 1015.8 hPa Calm     87% 0 mm 0 W/m2
23:22 -3.8 °C -5.7 °C 1015.8 hPa Calm   1.6 km/h 87% 0 mm 0 W/m2
23:28 -3.8 °C -5.7 °C 1015.8 hPa Calm   1.6 km/h 87% 0 mm 0 W/m2
23:34 -3.8 °C -5.7 °C 1015.5 hPa Calm   1.6 km/h 87% 0 mm 0 W/m2
23:40 -3.8 °C -5.7 °C 1015.5 hPa Calm     87% 0 mm 0 W/m2
23:46 -3.8 °C -5.7 °C 1015.5 hPa Calm     87% 0 mm 0 W/m2
23:52 -3.9 °C -5.7 °C 1015.1 hPa Calm     87% 0 mm 0 W/m2
23:58 -3.9 °C -5.8 °C 1015.1 hPa Calm     87% 0 mm 0 W/m2
Country Meadow, Clay, NY, USA
Compliments of Weather Underground - 2 mb